Island Lake, Wisconsin
Current Conditions -  °F | °C
As of 3:35 PM on Saturday 22 Nov 2014 (Local Time) from KY23 Reporting Station
Haze Haze  
Wind Chill: 30°   Ceiling: 600
Heat Index: 35°   Visibility: 5mi
Dew Point: 33°   Wind: 5mph
Humidity: 94%   Direction: 160°SSE
Pressure: 29.7"   Gusts: NA
Location:  45.2376°N, 91.504°W
Report Text: KY23 222135Z AUTO 16004KT 5SM BR OVC006 01/01 A2970 RMK AO2 T00140006
Loading
Personal Weather Stations






























Interactive Weather Map New forecast layout! Learn more

10-Day Weather Forecast

Advertisements
Track Severe Weather on mobile